地図

経路データ

SID SEASON NUMBER BASIN SUBBASIN NAME ISO_TIME NATURE LAT LON WMO_WIND WMO_PRES WMO_AGENCY TRACK_TYPE DIST2LAND LANDFALL IFLAG USA_AGENCY USA_ATCF_ID USA_LAT USA_LON USA_RECORD USA_STATUS USA_WIND USA_PRES USA_SSHS USA_R34_NE USA_R34_SE USA_R34_SW USA_R34_NW USA_R50_NE USA_R50_SE USA_R50_SW USA_R50_NW USA_R64_NE USA_R64_SE USA_R64_SW USA_R64_NW USA_POCI USA_ROCI USA_RMW USA_EYE TOKYO_LAT TOKYO_LON TOKYO_GRADE TOKYO_WIND TOKYO_PRES TOKYO_R50_DIR TOKYO_R50_LONG TOKYO_R50_SHORT TOKYO_R30_DIR TOKYO_R30_LONG TOKYO_R30_SHORT TOKYO_LAND CMA_LAT CMA_LON CMA_CAT CMA_WIND CMA_PRES HKO_LAT HKO_LON HKO_CAT HKO_WIND HKO_PRES NEWDELHI_LAT NEWDELHI_LON NEWDELHI_GRADE NEWDELHI_WIND NEWDELHI_PRES NEWDELHI_CI NEWDELHI_DP NEWDELHI_POCI REUNION_LAT REUNION_LON REUNION_TYPE REUNION_WIND REUNION_PRES REUNION_TNUM REUNION_CI REUNION_RMW REUNION_R34_NE REUNION_R34_SE REUNION_R34_SW REUNION_R34_NW REUNION_R50_NE REUNION_R50_SE REUNION_R50_SW REUNION_R50_NW REUNION_R64_NE REUNION_R64_SE REUNION_R64_SW REUNION_R64_NW BOM_LAT BOM_LON BOM_TYPE BOM_WIND BOM_PRES BOM_TNUM BOM_CI BOM_RMW BOM_R34_NE BOM_R34_SE BOM_R34_SW BOM_R34_NW BOM_R50_NE BOM_R50_SE BOM_R50_SW BOM_R50_NW BOM_R64_NE BOM_R64_SE BOM_R64_SW BOM_R64_NW BOM_ROCI BOM_POCI BOM_EYE BOM_POS_METHOD BOM_PRES_METHOD NADI_LAT NADI_LON NADI_CAT NADI_WIND NADI_PRES WELLINGTON_LAT WELLINGTON_LON WELLINGTON_WIND WELLINGTON_PRES DS824_LAT DS824_LON DS824_STAGE DS824_WIND DS824_PRES TD9636_LAT TD9636_LON TD9636_STAGE TD9636_WIND TD9636_PRES TD9635_LAT TD9635_LON TD9635_WIND TD9635_PRES TD9635_ROCI NEUMANN_LAT NEUMANN_LON NEUMANN_CLASS NEUMANN_WIND NEUMANN_PRES MLC_LAT MLC_LON MLC_CLASS MLC_WIND MLC_PRES USA_GUST BOM_GUST BOM_GUST_PER REUNION_GUST REUNION_GUST_PER USA_SEAHGT USA_SEARAD_NE USA_SEARAD_SE USA_SEARAD_SW USA_SEARAD_NW STORM_SPEED STORM_DIR
1964295N07158 1964 100 WP MM HOPE 1964-10-21 00:00:00 TS 7.20000 157.500 main 1323 1323 __O___________ -1 7.20000 157.500 1 29 1006 12 316
1964295N07158 1964 100 WP MM HOPE 1964-10-21 03:00:00 TS 7.64261 157.063 main 1340 1340 __P___________ -1 7.64261 157.063 1 29 1006 13 315
1964295N07158 1964 100 WP MM HOPE 1964-10-21 06:00:00 TS 8.10000 156.600 main 1365 1365 __O___________ -1 8.10000 156.600 1 29 1006 13 314
1964295N07158 1964 100 WP MM HOPE 1964-10-21 09:00:00 TS 8.57237 156.087 main 1391 1386 __P___________ -1 8.57237 156.087 1 29 1006 14 310
1964295N07158 1964 100 WP MM HOPE 1964-10-21 12:00:00 TS 9.00000 155.500 main 1406 1402 __O___________ -1 9.00000 155.500 1 29 1006 14 302
1964295N07158 1964 100 WP MM HOPE 1964-10-21 15:00:00 TS 9.33717 154.867 main 1415 1415 __P___________ -1 9.33717 154.867 1 29 1006 15 293
1964295N07158 1964 100 WP MM HOPE 1964-10-21 18:00:00 TS 9.60000 154.100 main 1423 1417 __O___________ -1 9.60000 154.100 1 29 1006 18 286
1964295N07158 1964 100 WP MM HOPE 1964-10-21 21:00:00 TS 9.84531 153.115 main 1421 1421 __P___________ -1 9.84531 153.115 1 29 1005 20 281
1964295N07158 1964 100 WP MM HOPE 1964-10-22 00:00:00 TS 10.0000 152.100 main 1429 1423 __O___________ -1 10.0000 152.100 1 29 1004 18 276
1964295N07158 1964 100 WP MM HOPE 1964-10-22 03:00:00 TS 10.0219 151.292 main 1423 1398 __P___________ -1 10.0219 151.292 1 29 1004 16 270
1964295N07158 1964 100 WP MM HOPE 1964-10-22 06:00:00 TS 10.0000 150.500 main 1398 1377 __O___________ -1 10.0000 150.500 1 29 1004 17 270
1964295N07158 1964 100 WP MM HOPE 1964-10-22 09:00:00 TS 10.0352 149.543 main 1375 1372 __P___________ -1 10.0352 149.543 1 29 1004 19 273
1964295N07158 1964 100 WP MM HOPE 1964-10-22 12:00:00 TS 10.1000 148.600 main 1373 1369 __O___________ -1 10.1000 148.600 1 29 1004 17 275
1964295N07158 1964 100 WP MM HOPE 1964-10-22 15:00:00 TS 10.1845 147.835 main 1378 1378 __P___________ -1 10.1845 147.835 1 29 1004 15 278
1964295N07158 1964 100 WP MM HOPE 1964-10-22 18:00:00 TS 10.3000 147.100 main 1389 1389 __O___________ -1 10.3000 147.100 1 29 1004 16 279
1964295N07158 1964 100 WP MM HOPE 1964-10-22 21:00:00 TS 10.4277 146.220 main 1401 1401 __P___________ -1 10.4277 146.220 1 29 1004 17 280
1964295N07158 1964 100 WP MM HOPE 1964-10-23 00:00:00 TS 10.6000 145.400 main 1429 1429 __O___________ -1 10.6000 145.400 1 29 1004 14 286
1964295N07158 1964 100 WP MM HOPE 1964-10-23 03:00:00 TS 10.8271 144.812 main 1459 1459 __P___________ -1 10.8271 144.812 1 29 1004 12 295
1964295N07158 1964 100 WP MM HOPE 1964-10-23 06:00:00 TS 11.1000 144.300 main 1500 1500 __O___________ -1 11.1000 144.300 1 29 1004 12 297
1964295N07158 1964 100 WP MM HOPE 1964-10-23 09:00:00 TS 11.3925 143.700 main 1546 1546 __P___________ -1 11.3925 143.700 1 29 1004 13 297
1964295N07158 1964 100 WP MM HOPE 1964-10-23 12:00:00 TS 11.7000 143.100 main 1585 1581 __O___________ -1 11.7000 143.100 1 29 1004 13 298
1964295N07158 1964 100 WP MM HOPE 1964-10-23 15:00:00 TS 11.9924 142.535 main 1596 1596 __P___________ -1 11.9924 142.535 1 29 1004 16 324
1964295N07158 1964 100 WP MM HOPE 1964-10-23 18:00:00 TS 12.9875 142.150 main 1694 1690 O_OO_____O_O__ jtwc_wp WP321964 13.7000 142.300 30 -1 12.3000 142.000 1 29 1004 13.6000 142.300 TD 25 1004 13.7000 142.300 TC 30 13.7000 142.300 30 1002 300 20 333
1964295N07158 1964 100 WP MM HOPE 1964-10-23 21:00:00 TS 13.7127 141.618 main 1741 1699 P_PP_____P_P__ WP321964 14.2578 141.698 30 -1 12.6499 141.492 1 29 1004 14.2030 141.626 TD 25 1004 14.2578 141.698 TC 30 14.2578 141.698 30 1002 270 17 321
1964295N07158 1964 100 WP MM HOPE 1964-10-24 00:00:00 TS 14.2889 141.083 1004 tokyo main 1701 1655 OOOO_____OOO__ jtwc_wp WP321964 14.7000 141.100 30 -1 14.1000 141.500 2 1004 0 0 0 13.0000 141.000 1 29 1004 14.7000 141.000 TD 25 1004 14.7000 141.100 TC 30 14.7000 141.100 1 30 14.7000 141.100 30 1002 240 14 313
1964295N07158 1964 100 WP MM HOPE 1964-10-24 03:00:00 TS 14.6398 140.602 main 1655 1616 PPPP_____PPP__ WP321964 14.9524 140.520 32 -1 14.4198 141.552 2 1004 0 0 13.2999 140.500 1 29 1004 15.0173 140.462 TD 27 1004 14.9524 140.520 TC 32 14.9085 140.624 1 31 14.9524 140.520 32 1002 240 10 302
1964295N07158 1964 100 WP MM HOPE 1964-10-24 06:00:00 TS 14.8388 140.179 1004 tokyo main 1616 1577 OOOO_____OPO__ jtwc_wp WP321964 15.1000 140.000 35 0 14.7000 141.400 2 1004 0 0 0 13.6000 140.000 1 29 1004 15.2000 140.000 TD 30 1004 15.1000 140.000 TC 35 15.1032 140.149 1 32 15.1000 140.000 35 1002 240 9 296
1964295N07158 1964 100 WP MM HOPE 1964-10-24 09:00:00 TS 15.0362 139.774 main 1577 1539 PPPP_____PPP__ WP321964 15.2648 139.585 35 0 14.9153 140.918 2 1004 0 0 13.9500 139.485 1 29 1004 15.3223 139.585 TD 30 1004 15.2648 139.585 TC 35 15.2713 139.674 1 33 15.2648 139.585 35 1001 270 9 294
1964295N07158 1964 100 WP MM HOPE 1964-10-24 12:00:00 TS 15.2000 139.329 1004 tokyo main 1528 1488 OOOO_____OOO__ jtwc_wp WP321964 15.4000 139.200 35 0 15.1000 140.300 2 1004 0 0 0 14.3000 139.000 1 29 1004 15.4000 139.200 TD 30 1004 15.4000 139.200 TC 35 15.4000 139.200 2 35 15.4000 139.200 35 1001 300 9 290
1964295N07158 1964 100 WP MM HOPE 1964-10-24 15:00:00 TS 15.3554 138.884 main 1491 1451 PPPP_____PPP__ WP321964 15.5150 138.757 35 0 15.3222 139.808 2 1003 0 0 14.6224 138.570 1 29 1003 15.5149 138.808 TD 30 1003 15.5150 138.757 TC 35 15.4833 138.730 2 36 15.5150 138.757 35 1000 330 9 288
1964295N07158 1964 100 WP MM HOPE 1964-10-24 18:00:00 TS 15.4775 138.438 1002 tokyo main 1441 1399 OOOO_____OPO__ jtwc_wp WP321964 15.6000 138.300 35 0 15.5000 139.300 2 1002 0 0 0 14.9000 138.200 1 29 1002 15.6000 138.400 TD 30 1002 15.6000 138.300 TC 35 15.5423 138.269 2 37 15.6000 138.300 35 1000 360 9 282
1964295N07158 1964 100 WP MM HOPE 1964-10-24 21:00:00 TS 15.5382 137.976 main 1399 1360 PPPP_____PPP__ WP321964 15.6350 137.835 37 0 15.5576 138.692 2 1002 0 0 15.1150 137.862 1 29 1002 15.5850 137.950 TD 30 1001 15.6350 137.835 TC 37 15.6052 137.824 2 38 15.6350 137.835 37 999 360 9 279
1964295N07158 1964 100 WP MM HOPE 1964-10-25 00:00:00 TS 15.6143 137.543 1002 tokyo main 1350 1322 OOOO_____OOO__ jtwc_wp WP321964 15.7000 137.400 40 0 15.6000 138.100 2 1002 0 0 0 15.3000 137.600 1 29 1002 15.6000 137.500 TD 30 1001 15.7000 137.400 TC 40 15.7000 137.400 2 40 15.7000 137.400 40 999 360 8 287
1964295N07158 1964 100 WP MM HOPE 1964-10-25 03:00:00 TS 15.7792 137.169 main 1325 1297 PPPP_____PPP__ WP321964 15.8773 137.042 40 0 15.7200 137.575 2 1001 0 0 15.4924 137.420 1 29 1001 15.7624 137.093 TD 30 1000 15.8773 137.042 TC 40 15.8478 136.971 2 40 15.8773 137.042 40 998 420 8 299
1964295N07158 1964 100 WP MM HOPE 1964-10-25 06:00:00 TS 15.9904 136.838 1000 tokyo main 1290 1267 OOOO_____OPO__ jtwc_wp WP321964 16.1000 136.700 40 0 15.9000 137.200 2 1000 0 0 0 15.7000 137.300 1 29 1000 16.0000 136.700 TD 30 1000 16.1000 136.700 TC 40 16.0325 136.568 2 40 16.1000 136.700 40 998 480 8 304
1964295N07158 1964 100 WP MM HOPE 1964-10-25 09:00:00 TS 16.2070 136.507 main 1267 1245 PPPP_____PPP__ WP321964 16.2851 136.277 40 0 16.1498 137.047 2 1000 0 0 15.9500 137.192 1 29 999 16.2426 136.270 TD 32 999 16.2851 136.277 TC 40 16.2510 136.205 2 40 16.2851 136.277 40 998 420 7 308
1964295N07158 1964 100 WP MM HOPE 1964-10-25 12:00:00 TS 16.4429 136.229 1000 tokyo main 1245 1237 OOOO_____OOO__ jtwc_wp WP321964 16.5000 135.900 40 0 16.4000 137.000 2 1000 0 0 0 16.2000 137.100 1 29 999 16.5000 135.900 TS 35 999 16.5000 135.900 TC 40 16.5000 135.900 2 40 16.5000 135.900 40 998 360 7 316
1964295N07158 1964 100 WP MM HOPE 1964-10-25 15:00:00 TS 16.6839 136.028 main 1237 1232 PPPP_____PPP__ WP321964 16.7849 135.662 40 0 16.5425 136.900 2 1000 0 0 16.3925 137.000 1 29 998 16.7349 135.662 TS 35 998 16.7849 135.662 TC 40 16.7628 135.643 2 40 16.7849 135.662 40 997 330 6 326
1964295N07158 1964 100 WP MM HOPE 1964-10-25 18:00:00 TS 16.9507 135.878 1000 tokyo main 1241 1231 OOOO_____OPO__ jtwc_wp WP321964 17.1000 135.500 40 0 16.7000 136.800 2 1000 0 0 0 16.6000 136.900 1 29 998 17.0000 135.500 TS 35 998 17.1000 135.500 TC 40 17.0547 135.445 2 40 17.1000 135.500 40 997 300 6 333
1964295N07158 1964 100 WP MM HOPE 1964-10-25 21:00:00 TS 17.2502 135.730 main 1236 1236 PPPP_____PPP__ WP321964 17.3925 135.327 40 0 16.9850 136.700 2 1000 0 0 16.8925 136.800 1 29 997 17.3275 135.328 TS 35 997 17.3925 135.327 TC 40 17.3692 135.299 2 40 17.3925 135.327 40 996 300 7 338
1964295N07158 1964 100 WP MM HOPE 1964-10-26 00:00:00 TS 17.5714 135.614 1000 tokyo main 1242 1242 OOOO_____OOO__ jtwc_wp WP321964 17.7000 135.200 40 0 17.3000 136.600 2 1000 0 0 0 17.2000 136.700 1 29 997 17.7000 135.200 TS 35 997 17.7000 135.200 TC 40 17.7000 135.200 2 40 17.7000 135.200 40 996 300 7 344
1964295N07158 1964 100 WP MM HOPE 1964-10-26 03:00:00 TS 17.8910 135.531 main 1248 1248 PPPP_____PPP__ WP321964 18.0425 135.127 42 0 17.5425 136.500 2 1000 0 0 17.4200 136.607 1 29 996 18.1075 135.127 TS 37 996 18.0425 135.127 TC 42 18.0395 135.099 2 41 18.0425 135.127 42 996 330 7 349
1964295N07158 1964 100 WP MM HOPE 1964-10-26 06:00:00 TS 18.2275 135.478 1000 tokyo main 1265 1265 OOOO_____OPO__ jtwc_wp WP321964 18.4000 135.100 45 0 17.8000 136.400 2 1000 0 0 0 17.7000 136.500 1 29 996 18.5000 135.100 TS 40 995 18.4000 135.100 TC 45 18.3923 135.045 2 42 18.4000 135.100 45 996 360 7 353
1964295N07158 1964 100 WP MM HOPE 1964-10-26 09:00:00 TS 18.5852 135.433 main 1280 1280 PPPP_____PPP__ WP321964 18.7500 135.078 45 0 18.1200 136.315 2 998 0 0 18.1625 136.365 1 29 996 18.8150 135.078 TS 40 994 18.7500 135.078 TC 45 18.7489 135.043 2 43 18.7500 135.078 45 995 330 7 356
1964295N07158 1964 100 WP MM HOPE 1964-10-26 12:00:00 TS 18.9571 135.414 996 tokyo main 1304 1304 OOOO_____OOO__ jtwc_wp WP321964 19.1000 135.100 45 0 18.5000 136.200 2 996 0 0 0 18.7000 136.200 1 29 996 19.1000 135.100 TS 40 993 19.1000 135.100 TC 45 19.1000 135.100 2 45 19.1000 135.100 45 995 300 7 357
1964295N07158 1964 100 WP MM HOPE 1964-10-26 15:00:00 TS 19.3274 135.403 main 1318 1318 PPPP_____PPP__ WP321964 19.4575 135.163 45 0 18.9051 135.985 2 996 0 0 19.2151 135.985 1 33 996 19.4000 135.170 TS 42 993 19.4575 135.163 TC 45 19.3995 135.190 2 46 19.4575 135.163 45 994 330 7 3
1964295N07158 1964 100 WP MM HOPE 1964-10-26 18:00:00 TS 19.6996 135.448 996 tokyo main 1338 1319 OOOO_____OPO__ jtwc_wp WP321964 19.8000 135.300 45 0 19.4000 135.800 9 996 0 0 0 19.7000 135.800 2 38 996 19.7000 135.300 TS 45 993 19.8000 135.300 TC 45 19.6973 135.339 2 47 19.8000 135.300 45 994 360 8 12
1964295N07158 1964 100 WP MM HOPE 1964-10-26 21:00:00 TS 20.0587 135.570 main 1312 1285 PPPP_____PPP__ WP321964 20.0699 135.505 47 0 20.0950 135.755 9 996 0 0 20.1375 135.712 2 38 996 19.9474 135.463 TS 45 995 20.0699 135.505 TC 47 20.0213 135.543 2 48 20.0699 135.505 47 994 390 8 22
1964295N07158 1964 100 WP MM HOPE 1964-10-27 00:00:00 TS 20.4429 135.771 996 tokyo main 1289 1245 OOOO_____OOO__ jtwc_wp WP321964 20.4000 135.800 50 0 20.7000 135.800 9 996 0 0 0 20.5000 135.700 2 38 996 20.3000 135.700 TS 45 997 20.4000 135.800 TC 50 20.4000 135.800 2 50 20.4000 135.800 50 995 420 9 28
1964295N07158 1964 100 WP MM HOPE 1964-10-27 03:00:00 TS 20.8790 136.039 main 1245 1218 PPPP_____PPP__ WP321964 20.9202 136.192 52 0 20.8724 135.855 9 995 0 0 20.7350 135.720 2 38 995 20.9200 136.020 TS 47 994 20.9202 136.192 TC 52 20.8651 136.102 2 52 20.9202 136.192 52 993 420 11 31
1964295N07158 1964 100 WP MM HOPE 1964-10-27 06:00:00 TS 21.3551 136.350 994 tokyo main 1212 1182 OOOO_____OPO__ jtwc_wp WP321964 21.5000 136.600 55 0 21.0000 136.000 9 994 0 0 0 21.0000 135.800 2 38 994 21.6000 136.400 STS 50 992 21.5000 136.600 TC 55 21.3855 136.452 2 55 21.5000 136.600 55 992 420 11 30
1964295N07158 1964 100 WP MM HOPE 1964-10-27 09:00:00 TS 21.8432 136.640 main 1182 1149 PPPP_____PPP__ WP321964 21.9998 136.908 57 0 21.4100 136.248 9 992 0 0 21.4398 135.891 2 43 992 22.1149 136.793 STS 52 986 21.9998 136.908 TC 57 21.9381 136.826 2 57 21.9998 136.908 57 987 390 12 29
1964295N07158 1964 100 WP MM HOPE 1964-10-27 12:00:00 TS 22.3714 136.957 990 tokyo main 1145 1113 OOOO_____OOO__ jtwc_wp WP321964 22.5000 137.200 60 0 22.0000 136.600 9 990 0 0 0 22.0000 136.100 3 48 990 22.6000 137.200 STS 55 981 22.5000 137.200 TC 60 22.5000 137.200 2 60 22.5000 137.200 60 982 360 13 30
1964295N07158 1964 100 WP MM HOPE 1964-10-27 15:00:00 TS 22.9499 137.328 main 1113 1078 PPPP_____PPP__ WP321964 23.0350 137.543 62 0 22.7500 137.020 9 987 0 0 22.6126 136.498 3 53 986 23.1424 137.600 STS 57 980 23.0350 137.543 TC 62 23.0393 137.550 2 62 23.0350 137.543 62 981 360 14 31
1964295N07158 1964 100 WP MM HOPE 1964-10-27 18:00:00 TS 23.5571 137.729 985 tokyo main 1068 1047 OOOO_____OOO__ jtwc_wp WP321964 23.6000 137.900 65 1 23.5000 137.500 9 985 0 0 0 23.3000 137.000 3 58 983 23.7000 138.000 STS 60 980 23.6000 137.900 TC 65 23.6000 137.900 3 65 23.6000 137.900 65 980 360 14 31
1964295N07158 1964 100 WP MM HOPE 1964-10-27 21:00:00 TS 24.1145 138.091 main 1047 1005 PPPP_____PPP__ WP321964 24.1546 138.214 67 1 23.9622 137.972 9 982 0 0 24.0118 137.442 3 63 980 24.1971 138.371 STS 62 977 24.1546 138.214 TC 67 24.1666 138.208 3 67 24.1546 138.214 67 978 360 14 31
1964295N07158 1964 100 WP MM HOPE 1964-10-28 00:00:00 TS 24.7571 138.529 980 tokyo main 994 926 OOOO_____OOO__ jtwc_wp WP321964 24.8000 138.600 70 1 24.5000 138.500 9 980 0 0 0 24.8000 138.000 4 68 977 24.8000 138.800 T 65 975 24.8000 138.600 TC 70 24.8000 138.600 4 70 24.8000 138.600 70 977 360 18 32
1964295N07158 1964 100 WP MM HOPE 1964-10-28 03:00:00 TS 25.6034 139.096 main 926 860 PPPP_____PPP__ WP321964 25.6118 139.104 72 1 25.4469 139.083 9 977 0 0 25.6921 138.760 4 72 975 25.6770 139.325 T 67 972 25.6118 139.104 TC 72 25.5726 139.192 4 71 25.6118 139.104 72 975 390 21 34
1964295N07158 1964 100 WP MM HOPE 1964-10-28 06:00:00 TS 26.5198 139.836 975 tokyo main 860 825 OOOO_____OPO__ jtwc_wp WP321964 26.5000 139.800 75 1 26.5000 139.800 9 975 0 0 0 26.6000 139.700 4 77 974 26.6000 140.000 T 70 970 26.5000 139.800 TC 75 26.4387 139.953 4 72 26.5000 139.800 75 974 420 23 40
1964295N07158 1964 100 WP MM HOPE 1964-10-28 09:00:00 TS 27.3770 140.769 main 822 775 PPPP_____PPP__ WP321964 27.3804 140.739 75 1 27.3878 140.713 9 975 0 0 27.4303 140.778 4 77 975 27.3447 140.833 T 70 970 27.3804 140.739 TC 75 27.3352 140.838 4 73 27.3804 140.739 75 975 390 24 47
1964295N07158 1964 100 WP MM HOPE 1964-10-28 12:00:00 TS 28.1714 141.800 975 tokyo main 768 729 OOOO_____OOO__ jtwc_wp WP321964 28.2000 141.800 75 1 28.2000 141.700 9 975 0 0 0 28.2000 141.900 4 77 977 28.0000 141.800 T 70 970 28.2000 141.800 TC 75 28.2000 141.800 4 75 28.2000 141.800 75 977 360 23 50
1964295N07158 1964 100 WP MM HOPE 1964-10-28 15:00:00 TS 28.8488 142.775 main 733 699 PPPP_____PPP__ WP321964 28.8641 142.795 75 1 28.9784 142.572 9 975 0 0 28.9139 142.917 4 77 978 28.5699 142.837 T 70 972 28.8641 142.795 TC 75 28.8871 142.712 4 73 28.8641 142.795 75 978 360 22 52
1964295N07158 1964 100 WP MM HOPE 1964-10-28 18:00:00 TS 29.5060 143.770 975 tokyo main 704 686 OOOO_____OPO__ jtwc_wp WP321964 29.5000 143.800 75 1 29.7000 143.500 9 975 0 0 0 29.6000 143.900 4 77 979 29.2000 143.900 T 70 975 29.5000 143.800 TC 75 29.5421 143.690 4 72 29.5000 143.800 75 979 360 22 52
1964295N07158 1964 100 WP MM HOPE 1964-10-28 21:00:00 TS 30.2244 144.803 main 692 685 PPPP_____PPP__ WP321964 30.2188 144.822 72 1 30.3428 144.629 9 977 0 0 30.2916 144.894 4 72 981 30.0536 144.886 T 67 977 30.2188 144.822 TC 72 30.2262 144.747 4 71 30.2188 144.822 72 981 330 24 51
1964295N07158 1964 100 WP MM HOPE 1964-10-29 00:00:00 TS 31.0000 145.886 980 tokyo main 693 691 OOOO_____OOO__ jtwc_wp WP321964 31.0000 145.900 70 1 31.0000 145.800 9 980 0 0 0 31.0000 145.900 4 68 984 31.0000 145.900 T 65 980 31.0000 145.900 TC 70 31.0000 145.900 4 70 31.0000 145.900 70 984 300 24 50
1964295N07158 1964 100 WP MM HOPE 1964-10-29 03:00:00 TS 31.7956 146.981 main 710 710 PPPP_____PPP__ WP321964 31.7803 147.023 67 1 31.7517 146.795 9 985 0 0 31.7025 146.880 4 68 987 31.8673 146.958 T 65 982 31.7803 147.023 TC 67 31.9069 147.164 4 65 31.7803 147.023 67 984 330 26 49
1964295N07158 1964 100 WP MM HOPE 1964-10-29 06:00:00 TS 32.6909 148.207 990 tokyo main 748 748 OOOO_____OPO__ jtwc_wp WP321964 32.7000 148.300 65 1 32.6000 147.900 9 990 0 0 0 32.5000 148.000 4 68 990 32.8000 148.200 T 65 985 32.7000 148.300 TC 65 32.9214 148.531 4 60 32.7000 148.300 65 984 360 30 49
1964295N07158 1964 100 WP MM HOPE 1964-10-29 09:00:00 TS 33.7375 149.676 main 832 832 PPPP_____PPP__ WP321964 33.8627 149.839 57 0 33.4806 149.314 9 993 0 0 33.4227 149.363 4 63 993 33.8664 149.745 T 55 987 33.8627 149.839 TC 57 34.0002 149.984 4 55 33.8627 149.839 57 985 330 34 50
1964295N07158 1964 100 WP MM HOPE 1964-10-29 12:00:00 TS 34.8667 151.310 996 tokyo main 945 945 OOOO_____OOO__ jtwc_wp WP321964 35.1000 151.500 50 0 34.5000 151.000 9 996 0 0 0 34.5000 151.000 3 58 996 35.0000 151.500 TS 45 990 35.1000 151.500 TC 50 35.1000 151.500 2 50 35.1000 151.500 50 986 300 36 49
1964295N07158 1964 100 WP MM HOPE 1964-10-29 15:00:00 TS 36.0871 153.003 main 1016 1011 PPP______P_P__ WP321964 36.3637 153.125 50 0 35.7684 152.856 9 996 0 0 35.7762 152.849 3 58 996 TS 36.3637 153.125 TC 50 2 36.2402 153.114 50 987 300 37 51
1964295N07158 1964 100 WP MM HOPE 1964-10-29 18:00:00 TS 37.1588 154.841 996 tokyo main 1025 1025 OOO______O_O__ jtwc_wp WP321964 37.3000 154.700 50 0 37.0000 155.000 9 996 0 0 0 37.0000 155.000 3 58 996 37.3000 154.700 TC 50 2 37.3000 154.700 50 988 300 34 62
1964295N07158 1964 100 WP MM HOPE 1964-10-29 21:00:00 TS 37.6910 156.724 main 1051 1051 PPP______P____ WP321964 37.5191 156.014 50 0 37.8516 157.436 9 998 0 0 37.8740 157.433 3 53 998 37.5191 156.014 TC 50 2 32 74
1964295N07158 1964 100 WP MM HOPE 1964-10-30 00:00:00 MX 38.0500 158.750 1000 tokyo main 1120 1120 OOO______O____ jtwc_wp WP321964 37.5000 157.500 50 0 38.6000 160.000 2 1000 0 0 0 38.6000 160.000 9 48 1000 37.5000 157.500 TC 50 35 75
1964295N07158 1964 100 WP MM HOPE 1964-10-30 03:00:00 MX 38.5817 161.097 main 1206 1206 PPP______P____ WP321964 37.7578 159.731 47 0 39.4918 162.460 2 1001 0 0 39.3194 162.467 9 43 1001 37.7578 159.731 TC 47 39 74
1964295N07158 1964 100 WP MM HOPE 1964-10-30 06:00:00 MX 39.1250 163.500 1002 tokyo main 1319 1318 OOO______O____ jtwc_wp WP321964 38.0000 162.000 45 0 40.4000 165.000 2 1002 0 0 0 40.1000 165.000 9 38 1002 38.0000 162.000 TC 45 36 73
1964295N07158 1964 100 WP MM HOPE 1964-10-30 09:00:00 MX 39.6332 165.518 main 1395 1390 PPP______P____ WP321964 38.1288 163.314 42 0 41.2237 167.724 2 1003 0 0 41.0513 167.717 9 33 1003 38.1288 163.314 TC 42 34 74
1964295N07158 1964 100 WP MM HOPE 1964-10-30 12:00:00 MX 40.1000 167.800 1004 tokyo main 1453 1453 OOO______O____ jtwc_wp WP321964 38.2000 165.000 40 0 42.0000 170.600 2 1004 0 0 0 42.0000 170.600 9 29 1004 38.2000 165.000 TC 40 41 78
1964295N07158 1964 100 WP MM HOPE 1964-10-30 15:00:00 MX 40.4651 170.835 main 1577 1577 PPP______P____ WP321964 38.1762 168.066 37 0 42.7316 173.601 2 1005 0 0 42.7764 173.606 9 1005 38.1762 168.066 TC 37 50 83
1964295N07158 1964 100 WP MM HOPE 1964-10-30 18:00:00 MX 40.7000 174.350 1006 tokyo main 1744 OOO______O____ jtwc_wp WP321964 38.0000 172.000 35 0 43.4000 176.700 2 1006 0 0 0 43.4000 176.700 9 1006 38.0000 172.000 TC 35 53 85

デジタル台風データ・検索

IBTrACS Databaseについて

本データベースは、米国NOAAが公開する1842年以降の世界の熱帯低気圧のベストトラックデータアーカイブInternational Best Track Archive for Climate Stewardship (IBTrACS)を、ウェブで閲覧しやすい形式に変換したものです。

最終更新日:2021-12-03